sensor_id;sensor_type;location;lat;lon;timestamp;P1;durP1;ratioP1;P2;durP2;ratioP2
56297;SDS011;42208;6.376;-10.782;2023-03-04T09:08:51;80.63;;;21.90;;
56297;SDS011;42208;6.376;-10.782;2023-03-04T09:11:19;76.20;;;21.80;;
56297;SDS011;42208;6.376;-10.782;2023-03-04T09:13:47;77.35;;;21.40;;
56297;SDS011;42208;6.376;-10.782;2023-03-04T09:16:16;59.63;;;17.88;;
56297;SDS011;42208;6.376;-10.782;2023-03-04T09:18:44;73.68;;;17.65;;
56297;SDS011;42208;6.376;-10.782;2023-03-04T09:21:13;62.67;;;18.35;;
56297;SDS011;42208;6.376;-10.782;2023-03-04T09:23:41;65.22;;;17.80;;
56297;SDS011;42208;6.376;-10.782;2023-03-04T09:26:14;62.60;;;17.88;;
56297;SDS011;42208;6.376;-10.782;2023-03-04T09:28:49;67.45;;;14.38;;
56297;SDS011;42208;6.376;-10.782;2023-03-04T09:31:21;59.70;;;16.67;;
56297;SDS011;42208;6.376;-10.782;2023-03-04T09:33:50;56.05;;;13.68;;
56297;SDS011;42208;6.376;-10.782;2023-03-04T09:36:19;58.63;;;15.38;;
56297;SDS011;42208;6.376;-10.782;2023-03-04T09:38:49;65.75;;;16.10;;
56297;SDS011;42208;6.376;-10.782;2023-03-04T09:41:19;66.53;;;17.58;;
56297;SDS011;42208;6.376;-10.782;2023-03-04T09:43:51;48.10;;;15.57;;
56297;SDS011;42208;6.376;-10.782;2023-03-04T09:46:34;55.85;;;15.98;;
56297;SDS011;42208;6.376;-10.782;2023-03-04T09:49:05;48.45;;;14.43;;
56297;SDS011;42208;6.376;-10.782;2023-03-04T09:54:23;63.88;;;14.82;;
56297;SDS011;42208;6.376;-10.782;2023-03-04T10:05:41;44.87;;;12.27;;
56297;SDS011;42208;6.376;-10.782;2023-03-04T10:11:31;58.78;;;15.07;;
56297;SDS011;42208;6.376;-10.782;2023-03-04T10:17:27;49.70;;;14.00;;
56297;SDS011;42208;6.376;-10.782;2023-03-04T10:22:34;45.00;;;12.23;;
56297;SDS011;42208;6.376;-10.782;2023-03-04T10:25:19;51.50;;;15.07;;
56297;SDS011;42208;6.376;-10.782;2023-03-04T10:27:54;44.25;;;11.07;;
56297;SDS011;42208;6.376;-10.782;2023-03-04T10:33:18;54.58;;;15.55;;
56297;SDS011;42208;6.376;-10.782;2023-03-04T10:35:58;42.72;;;12.63;;
56297;SDS011;42208;6.376;-10.782;2023-03-04T10:38:44;60.80;;;15.77;;
56297;SDS011;42208;6.376;-10.782;2023-03-04T10:41:14;49.25;;;13.68;;
56297;SDS011;42208;6.376;-10.782;2023-03-04T10:43:48;69.05;;;26.13;;
56297;SDS011;42208;6.376;-10.782;2023-03-04T10:46:26;55.08;;;19.00;;
56297;SDS011;42208;6.376;-10.782;2023-03-04T10:48:55;60.10;;;16.48;;
56297;SDS011;42208;6.376;-10.782;2023-03-04T10:51:28;103.07;;;39.08;;
56297;SDS011;42208;6.376;-10.782;2023-03-04T11:05:10;51.15;;;12.90;;
56297;SDS011;42208;6.376;-10.782;2023-03-04T11:07:57;52.20;;;14.30;;
56297;SDS011;42208;6.376;-10.782;2023-03-04T11:13:15;49.55;;;13.48;;
56297;SDS011;42208;6.376;-10.782;2023-03-04T11:15:53;41.97;;;11.60;;
56297;SDS011;42208;6.376;-10.782;2023-03-04T11:18:28;48.53;;;12.25;;
56297;SDS011;42208;6.376;-10.782;2023-03-04T11:21:06;48.28;;;11.73;;
56297;SDS011;42208;6.376;-10.782;2023-03-04T11:23:45;50.85;;;10.70;;
56297;SDS011;42208;6.376;-10.782;2023-03-04T11:27:02;56.15;;;11.25;;
56297;SDS011;42208;6.376;-10.782;2023-03-04T11:35:00;46.13;;;13.70;;
56297;SDS011;42208;6.376;-10.782;2023-03-04T11:37:52;62.88;;;18.88;;
56297;SDS011;42208;6.376;-10.782;2023-03-04T11:40:44;48.08;;;13.60;;
56297;SDS011;42208;6.376;-10.782;2023-03-04T11:43:24;46.40;;;10.40;;
56297;SDS011;42208;6.376;-10.782;2023-03-04T11:57:03;46.58;;;11.07;;
56297;SDS011;42208;6.376;-10.782;2023-03-04T12:03:22;49.95;;;12.88;;
56297;SDS011;42208;6.376;-10.782;2023-03-04T12:09:15;47.75;;;15.73;;
56297;SDS011;42208;6.376;-10.782;2023-03-04T12:12:13;48.85;;;12.98;;
56297;SDS011;42208;6.376;-10.782;2023-03-04T12:23:28;51.13;;;13.05;;
56297;SDS011;42208;6.376;-10.782;2023-03-04T12:29:01;61.40;;;15.88;;
56297;SDS011;42208;6.376;-10.782;2023-03-04T12:31:42;46.50;;;15.73;;
56297;SDS011;42208;6.376;-10.782;2023-03-04T12:43:15;49.85;;;11.90;;
56297;SDS011;42208;6.376;-10.782;2023-03-04T12:57:40;42.38;;;12.45;;
56297;SDS011;42208;6.376;-10.782;2023-03-04T13:11:00;53.55;;;14.85;;
56297;SDS011;42208;6.376;-10.782;2023-03-04T13:13:34;40.00;;;12.65;;
56297;SDS011;42208;6.376;-10.782;2023-03-04T13:18:49;46.10;;;12.48;;
56297;SDS011;42208;6.376;-10.782;2023-03-04T13:21:22;45.58;;;12.50;;
56297;SDS011;42208;6.376;-10.782;2023-03-04T13:24:44;67.18;;;12.77;;
56297;SDS011;42208;6.376;-10.782;2023-03-04T13:30:38;45.38;;;12.38;;
56297;SDS011;42208;6.376;-10.782;2023-03-04T13:43:37;46.10;;;13.23;;
56297;SDS011;42208;6.376;-10.782;2023-03-04T13:54:11;42.92;;;11.93;;
56297;SDS011;42208;6.376;-10.782;2023-03-04T13:59:11;57.00;;;12.85;;
56297;SDS011;42208;6.376;-10.782;2023-03-04T14:01:54;40.47;;;13.32;;
56297;SDS011;42208;6.376;-10.782;2023-03-04T14:04:31;50.42;;;13.13;;
56297;SDS011;42208;6.376;-10.782;2023-03-04T14:12:53;46.83;;;13.25;;
56297;SDS011;42208;6.376;-10.782;2023-03-04T14:15:33;38.72;;;10.27;;
56297;SDS011;42208;6.376;-10.782;2023-03-04T14:18:02;46.03;;;11.10;;
56297;SDS011;42208;6.376;-10.782;2023-03-04T14:20:46;36.75;;;9.68;;
56297;SDS011;42208;6.376;-10.782;2023-03-04T14:23:23;42.15;;;11.80;;
56297;SDS011;42208;6.376;-10.782;2023-03-04T14:25:56;40.22;;;11.95;;
56297;SDS011;42208;6.376;-10.782;2023-03-04T14:28:41;40.95;;;11.07;;
56297;SDS011;42208;6.376;-10.782;2023-03-04T14:31:18;62.75;;;21.55;;
56297;SDS011;42208;6.376;-10.782;2023-03-04T14:33:50;53.53;;;14.77;;
56297;SDS011;42208;6.376;-10.782;2023-03-04T14:36:21;58.22;;;17.60;;
56297;SDS011;42208;6.376;-10.782;2023-03-04T14:38:51;79.10;;;23.45;;
56297;SDS011;42208;6.376;-10.782;2023-03-04T14:41:27;55.63;;;15.73;;
56297;SDS011;42208;6.376;-10.782;2023-03-04T14:44:05;49.40;;;13.93;;
56297;SDS011;42208;6.376;-10.782;2023-03-04T14:46:43;42.72;;;11.70;;
56297;SDS011;42208;6.376;-10.782;2023-03-04T14:49:34;40.58;;;12.63;;
56297;SDS011;42208;6.376;-10.782;2023-03-04T14:52:03;47.30;;;13.73;;
56297;SDS011;42208;6.376;-10.782;2023-03-04T14:57:19;44.50;;;14.35;;
56297;SDS011;42208;6.376;-10.782;2023-03-04T14:59:53;36.08;;;11.25;;
56297;SDS011;42208;6.376;-10.782;2023-03-04T15:02:28;39.03;;;10.48;;
56297;SDS011;42208;6.376;-10.782;2023-03-04T15:05:08;34.22;;;9.93;;
56297;SDS011;42208;6.376;-10.782;2023-03-04T15:07:49;45.78;;;10.75;;
56297;SDS011;42208;6.376;-10.782;2023-03-04T15:10:26;43.90;;;10.27;;
56297;SDS011;42208;6.376;-10.782;2023-03-04T15:12:57;34.80;;;10.65;;
56297;SDS011;42208;6.376;-10.782;2023-03-04T15:15:34;37.50;;;11.50;;
56297;SDS011;42208;6.376;-10.782;2023-03-04T15:20:56;41.03;;;12.05;;
56297;SDS011;42208;6.376;-10.782;2023-03-04T15:23:31;41.60;;;12.18;;
56297;SDS011;42208;6.376;-10.782;2023-03-04T15:26:01;46.75;;;14.73;;
56297;SDS011;42208;6.376;-10.782;2023-03-04T15:28:33;45.08;;;12.90;;
56297;SDS011;42208;6.376;-10.782;2023-03-04T15:31:06;55.72;;;14.52;;
56297;SDS011;42208;6.376;-10.782;2023-03-04T15:33:46;38.20;;;10.73;;
56297;SDS011;42208;6.376;-10.782;2023-03-04T15:36:15;45.20;;;9.85;;
56297;SDS011;42208;6.376;-10.782;2023-03-04T15:38:50;54.95;;;13.07;;
56297;SDS011;42208;6.376;-10.782;2023-03-04T15:41:23;49.03;;;11.75;;
56297;SDS011;42208;6.376;-10.782;2023-03-04T15:43:53;39.55;;;9.80;;
56297;SDS011;42208;6.376;-10.782;2023-03-04T15:46:21;35.38;;;9.63;;
56297;SDS011;42208;6.376;-10.782;2023-03-04T15:48:50;32.33;;;9.93;;
56297;SDS011;42208;6.376;-10.782;2023-03-04T15:51:21;50.42;;;9.93;;
56297;SDS011;42208;6.376;-10.782;2023-03-04T15:53:54;41.75;;;8.88;;
56297;SDS011;42208;6.376;-10.782;2023-03-04T15:56:28;47.67;;;10.48;;
56297;SDS011;42208;6.376;-10.782;2023-03-04T15:59:00;51.63;;;8.43;;
56297;SDS011;42208;6.376;-10.782;2023-03-04T16:01:49;47.92;;;9.55;;
56297;SDS011;42208;6.376;-10.782;2023-03-04T16:04:17;40.33;;;8.68;;
56297;SDS011;42208;6.376;-10.782;2023-03-04T16:06:46;32.70;;;9.60;;
56297;SDS011;42208;6.376;-10.782;2023-03-04T16:09:16;32.45;;;9.30;;
56297;SDS011;42208;6.376;-10.782;2023-03-04T16:11:45;45.95;;;10.32;;
56297;SDS011;42208;6.376;-10.782;2023-03-04T16:14:14;34.75;;;8.88;;
56297;SDS011;42208;6.376;-10.782;2023-03-04T16:16:42;40.15;;;9.43;;
56297;SDS011;42208;6.376;-10.782;2023-03-04T16:19:11;41.65;;;9.88;;
56297;SDS011;42208;6.376;-10.782;2023-03-04T16:21:39;35.28;;;10.35;;
56297;SDS011;42208;6.376;-10.782;2023-03-04T16:24:11;52.22;;;11.40;;
56297;SDS011;42208;6.376;-10.782;2023-03-04T16:26:44;38.40;;;9.45;;
56297;SDS011;42208;6.376;-10.782;2023-03-04T16:29:14;42.88;;;10.07;;
56297;SDS011;42208;6.376;-10.782;2023-03-04T16:31:42;44.67;;;9.45;;
56297;SDS011;42208;6.376;-10.782;2023-03-04T16:34:11;49.38;;;10.18;;
56297;SDS011;42208;6.376;-10.782;2023-03-04T16:36:39;42.72;;;10.20;;
56297;SDS011;42208;6.376;-10.782;2023-03-04T16:39:11;38.17;;;9.57;;
56297;SDS011;42208;6.376;-10.782;2023-03-04T16:41:46;54.50;;;14.13;;
56297;SDS011;42208;6.376;-10.782;2023-03-04T16:44:15;38.55;;;10.95;;
56297;SDS011;42208;6.376;-10.782;2023-03-04T16:46:44;35.72;;;9.35;;
56297;SDS011;42208;6.376;-10.782;2023-03-04T16:49:12;49.25;;;11.73;;
56297;SDS011;42208;6.376;-10.782;2023-03-04T16:51:42;27.33;;;7.85;;
56297;SDS011;42208;6.376;-10.782;2023-03-04T16:54:16;41.30;;;10.93;;
56297;SDS011;42208;6.376;-10.782;2023-03-04T16:56:50;44.60;;;10.02;;
56297;SDS011;42208;6.376;-10.782;2023-03-04T16:59:18;45.65;;;10.68;;
56297;SDS011;42208;6.376;-10.782;2023-03-04T17:01:46;53.65;;;15.35;;
56297;SDS011;42208;6.376;-10.782;2023-03-04T17:04:15;46.00;;;13.65;;
56297;SDS011;42208;6.376;-10.782;2023-03-04T17:06:44;68.15;;;19.83;;
56297;SDS011;42208;6.376;-10.782;2023-03-04T17:09:12;54.97;;;19.30;;
56297;SDS011;42208;6.376;-10.782;2023-03-04T17:11:43;56.70;;;14.25;;
56297;SDS011;42208;6.376;-10.782;2023-03-04T17:14:12;55.37;;;15.47;;
56297;SDS011;42208;6.376;-10.782;2023-03-04T17:16:40;45.78;;;13.57;;
56297;SDS011;42208;6.376;-10.782;2023-03-04T17:19:08;61.08;;;18.35;;
56297;SDS011;42208;6.376;-10.782;2023-03-04T17:21:37;57.92;;;19.42;;
56297;SDS011;42208;6.376;-10.782;2023-03-04T17:24:25;48.72;;;11.80;;
56297;SDS011;42208;6.376;-10.782;2023-03-04T17:27:18;51.03;;;14.18;;
56297;SDS011;42208;6.376;-10.782;2023-03-04T17:29:47;49.15;;;15.25;;
56297;SDS011;42208;6.376;-10.782;2023-03-04T17:32:15;67.75;;;22.10;;
56297;SDS011;42208;6.376;-10.782;2023-03-04T17:34:44;67.53;;;21.70;;
56297;SDS011;42208;6.376;-10.782;2023-03-04T17:37:13;73.80;;;25.67;;
56297;SDS011;42208;6.376;-10.782;2023-03-04T17:39:41;59.17;;;19.90;;
56297;SDS011;42208;6.376;-10.782;2023-03-04T17:42:10;63.53;;;16.05;;
56297;SDS011;42208;6.376;-10.782;2023-03-04T17:44:38;50.97;;;15.45;;
56297;SDS011;42208;6.376;-10.782;2023-03-04T17:47:07;50.83;;;14.02;;
56297;SDS011;42208;6.376;-10.782;2023-03-04T17:49:35;53.00;;;13.55;;
56297;SDS011;42208;6.376;-10.782;2023-03-04T17:52:13;53.40;;;14.70;;
56297;SDS011;42208;6.376;-10.782;2023-03-04T17:54:41;83.60;;;30.08;;
56297;SDS011;42208;6.376;-10.782;2023-03-04T17:57:11;68.55;;;19.83;;
56297;SDS011;42208;6.376;-10.782;2023-03-04T17:59:41;56.80;;;16.20;;
56297;SDS011;42208;6.376;-10.782;2023-03-04T18:02:14;48.97;;;12.75;;
56297;SDS011;42208;6.376;-10.782;2023-03-04T18:04:42;57.00;;;13.07;;
56297;SDS011;42208;6.376;-10.782;2023-03-04T18:07:11;45.08;;;11.57;;
56297;SDS011;42208;6.376;-10.782;2023-03-04T18:09:39;49.80;;;12.73;;
56297;SDS011;42208;6.376;-10.782;2023-03-04T18:12:07;55.63;;;13.18;;
56297;SDS011;42208;6.376;-10.782;2023-03-04T18:14:36;46.78;;;12.50;;
56297;SDS011;42208;6.376;-10.782;2023-03-04T18:17:04;41.97;;;12.00;;
56297;SDS011;42208;6.376;-10.782;2023-03-04T18:19:33;53.47;;;10.50;;
56297;SDS011;42208;6.376;-10.782;2023-03-04T18:22:01;46.45;;;11.40;;
56297;SDS011;42208;6.376;-10.782;2023-03-04T18:24:30;47.38;;;10.73;;
56297;SDS011;42208;6.376;-10.782;2023-03-04T18:26:58;45.92;;;13.73;;
56297;SDS011;42208;6.376;-10.782;2023-03-04T18:29:26;55.70;;;14.55;;
56297;SDS011;42208;6.376;-10.782;2023-03-04T18:31:55;69.65;;;17.60;;
56297;SDS011;42208;6.376;-10.782;2023-03-04T18:34:23;61.35;;;14.57;;
56297;SDS011;42208;6.376;-10.782;2023-03-04T18:36:51;89.38;;;17.30;;
56297;SDS011;42208;6.376;-10.782;2023-03-04T18:39:20;67.00;;;16.70;;
56297;SDS011;42208;6.376;-10.782;2023-03-04T18:41:48;77.53;;;18.45;;
56297;SDS011;42208;6.376;-10.782;2023-03-04T18:44:16;49.58;;;13.93;;
56297;SDS011;42208;6.376;-10.782;2023-03-04T18:46:49;52.20;;;15.95;;
56297;SDS011;42208;6.376;-10.782;2023-03-04T18:49:20;57.00;;;17.55;;
56297;SDS011;42208;6.376;-10.782;2023-03-04T18:51:49;57.78;;;16.25;;
56297;SDS011;42208;6.376;-10.782;2023-03-04T18:54:18;48.42;;;16.92;;
56297;SDS011;42208;6.376;-10.782;2023-03-04T18:56:50;80.90;;;29.92;;
56297;SDS011;42208;6.376;-10.782;2023-03-04T18:59:23;103.43;;;35.92;;
56297;SDS011;42208;6.376;-10.782;2023-03-04T19:01:54;104.85;;;42.63;;
56297;SDS011;42208;6.376;-10.782;2023-03-04T19:04:22;110.70;;;39.95;;
56297;SDS011;42208;6.376;-10.782;2023-03-04T19:09:23;128.50;;;43.13;;
56297;SDS011;42208;6.376;-10.782;2023-03-04T19:11:51;133.70;;;39.88;;
56297;SDS011;42208;6.376;-10.782;2023-03-04T19:14:19;153.32;;;46.30;;
56297;SDS011;42208;6.376;-10.782;2023-03-04T19:16:48;96.38;;;31.20;;
56297;SDS011;42208;6.376;-10.782;2023-03-04T19:19:16;139.73;;;42.65;;
56297;SDS011;42208;6.376;-10.782;2023-03-04T19:21:45;108.30;;;31.88;;
56297;SDS011;42208;6.376;-10.782;2023-03-04T19:24:13;146.18;;;41.55;;
56297;SDS011;42208;6.376;-10.782;2023-03-04T19:26:41;118.30;;;38.47;;
56297;SDS011;42208;6.376;-10.782;2023-03-04T19:29:10;104.28;;;32.72;;
56297;SDS011;42208;6.376;-10.782;2023-03-04T19:31:38;109.35;;;34.03;;
56297;SDS011;42208;6.376;-10.782;2023-03-04T19:34:07;87.38;;;30.33;;
56297;SDS011;42208;6.376;-10.782;2023-03-04T19:36:36;83.97;;;26.10;;
56297;SDS011;42208;6.376;-10.782;2023-03-04T19:39:05;101.18;;;28.35;;
56297;SDS011;42208;6.376;-10.782;2023-03-04T19:41:38;68.38;;;21.75;;
56297;SDS011;42208;6.376;-10.782;2023-03-04T19:44:06;111.85;;;30.75;;
56297;SDS011;42208;6.376;-10.782;2023-03-04T19:46:35;92.45;;;27.25;;
56297;SDS011;42208;6.376;-10.782;2023-03-04T19:49:03;109.30;;;36.58;;
56297;SDS011;42208;6.376;-10.782;2023-03-04T19:51:31;124.20;;;45.25;;
56297;SDS011;42208;6.376;-10.782;2023-03-04T19:54:00;120.30;;;40.15;;
56297;SDS011;42208;6.376;-10.782;2023-03-04T19:56:31;123.53;;;40.63;;
56297;SDS011;42208;6.376;-10.782;2023-03-04T19:59:00;85.18;;;29.77;;
56297;SDS011;42208;6.376;-10.782;2023-03-04T20:01:29;152.07;;;70.28;;
56297;SDS011;42208;6.376;-10.782;2023-03-04T20:04:04;111.93;;;41.63;;
56297;SDS011;42208;6.376;-10.782;2023-03-04T20:06:38;292.58;;;179.60;;
56297;SDS011;42208;6.376;-10.782;2023-03-04T20:09:11;269.45;;;165.52;;
56297;SDS011;42208;6.376;-10.782;2023-03-04T20:11:41;155.27;;;57.50;;
56297;SDS011;42208;6.376;-10.782;2023-03-04T20:14:23;135.00;;;48.13;;
56297;SDS011;42208;6.376;-10.782;2023-03-04T20:16:52;112.63;;;39.55;;
56297;SDS011;42208;6.376;-10.782;2023-03-04T20:19:20;122.28;;;44.78;;
56297;SDS011;42208;6.376;-10.782;2023-03-04T20:21:49;131.88;;;50.63;;
56297;SDS011;42208;6.376;-10.782;2023-03-04T20:24:17;178.93;;;83.03;;
56297;SDS011;42208;6.376;-10.782;2023-03-04T20:40:29;92.13;;;35.67;;
56297;SDS011;42208;6.376;-10.782;2023-03-04T20:42:57;76.22;;;27.00;;
56297;SDS011;42208;6.376;-10.782;2023-03-04T20:45:26;58.70;;;19.42;;
56297;SDS011;42208;6.376;-10.782;2023-03-04T20:47:54;211.20;;;75.97;;
56297;SDS011;42208;6.376;-10.782;2023-03-04T20:50:23;106.63;;;38.47;;
56297;SDS011;42208;6.376;-10.782;2023-03-04T20:52:51;71.55;;;22.45;;
56297;SDS011;42208;6.376;-10.782;2023-03-04T20:55:19;178.30;;;59.28;;
56297;SDS011;42208;6.376;-10.782;2023-03-04T20:57:48;202.52;;;75.35;;
56297;SDS011;42208;6.376;-10.782;2023-03-04T21:00:16;206.30;;;73.32;;
56297;SDS011;42208;6.376;-10.782;2023-03-04T21:02:45;236.27;;;92.03;;
56297;SDS011;42208;6.376;-10.782;2023-03-04T21:05:13;101.70;;;32.13;;
56297;SDS011;42208;6.376;-10.782;2023-03-04T21:07:42;72.55;;;23.92;;
56297;SDS011;42208;6.376;-10.782;2023-03-04T21:10:10;86.38;;;24.38;;
56297;SDS011;42208;6.376;-10.782;2023-03-04T21:12:39;170.48;;;57.17;;
56297;SDS011;42208;6.376;-10.782;2023-03-04T21:15:07;273.00;;;100.55;;
56297;SDS011;42208;6.376;-10.782;2023-03-04T21:17:36;438.02;;;163.13;;
56297;SDS011;42208;6.376;-10.782;2023-03-04T21:20:05;455.33;;;167.50;;
56297;SDS011;42208;6.376;-10.782;2023-03-04T21:22:33;444.30;;;164.15;;
56297;SDS011;42208;6.376;-10.782;2023-03-04T21:25:02;184.40;;;69.93;;
56297;SDS011;42208;6.376;-10.782;2023-03-04T21:27:31;350.27;;;123.22;;
56297;SDS011;42208;6.376;-10.782;2023-03-04T21:29:59;396.90;;;141.98;;
56297;SDS011;42208;6.376;-10.782;2023-03-04T21:32:27;303.33;;;110.18;;
56297;SDS011;42208;6.376;-10.782;2023-03-04T21:34:56;104.82;;;39.72;;
56297;SDS011;42208;6.376;-10.782;2023-03-04T21:37:25;120.25;;;42.15;;
56297;SDS011;42208;6.376;-10.782;2023-03-04T21:39:53;71.28;;;27.27;;
56297;SDS011;42208;6.376;-10.782;2023-03-04T21:42:23;84.15;;;27.80;;
56297;SDS011;42208;6.376;-10.782;2023-03-04T21:44:53;76.05;;;32.30;;
56297;SDS011;42208;6.376;-10.782;2023-03-04T21:47:22;124.22;;;64.53;;
56297;SDS011;42208;6.376;-10.782;2023-03-04T21:49:50;62.63;;;24.35;;
56297;SDS011;42208;6.376;-10.782;2023-03-04T21:52:19;94.03;;;36.30;;
56297;SDS011;42208;6.376;-10.782;2023-03-04T21:54:49;128.82;;;46.15;;
56297;SDS011;42208;6.376;-10.782;2023-03-04T21:57:18;227.27;;;83.10;;
56297;SDS011;42208;6.376;-10.782;2023-03-04T21:59:47;228.50;;;86.82;;
56297;SDS011;42208;6.376;-10.782;2023-03-04T22:02:17;306.85;;;112.47;;
56297;SDS011;42208;6.376;-10.782;2023-03-04T22:04:48;271.67;;;102.03;;
56297;SDS011;42208;6.376;-10.782;2023-03-04T22:07:16;228.07;;;84.85;;
56297;SDS011;42208;6.376;-10.782;2023-03-04T22:09:45;204.95;;;71.45;;
56297;SDS011;42208;6.376;-10.782;2023-03-04T22:12:13;170.77;;;64.13;;
56297;SDS011;42208;6.376;-10.782;2023-03-04T22:14:45;72.13;;;30.10;;
56297;SDS011;42208;6.376;-10.782;2023-03-04T22:17:14;74.88;;;28.35;;
56297;SDS011;42208;6.376;-10.782;2023-03-04T22:19:43;108.43;;;43.28;;
56297;SDS011;42208;6.376;-10.782;2023-03-04T22:22:11;110.63;;;52.67;;
56297;SDS011;42208;6.376;-10.782;2023-03-04T22:24:39;82.15;;;34.60;;
56297;SDS011;42208;6.376;-10.782;2023-03-04T22:27:08;91.32;;;43.45;;
56297;SDS011;42208;6.376;-10.782;2023-03-04T22:29:38;120.60;;;50.38;;
56297;SDS011;42208;6.376;-10.782;2023-03-04T22:32:06;89.45;;;36.00;;
56297;SDS011;42208;6.376;-10.782;2023-03-04T22:34:34;250.65;;;106.75;;
56297;SDS011;42208;6.376;-10.782;2023-03-04T22:37:03;387.65;;;185.77;;
56297;SDS011;42208;6.376;-10.782;2023-03-04T22:39:31;223.45;;;94.78;;
56297;SDS011;42208;6.376;-10.782;2023-03-04T22:42:00;161.05;;;58.58;;
56297;SDS011;42208;6.376;-10.782;2023-03-04T22:44:29;158.63;;;57.83;;
56297;SDS011;42208;6.376;-10.782;2023-03-04T22:46:57;130.50;;;55.28;;
56297;SDS011;42208;6.376;-10.782;2023-03-04T22:49:25;162.88;;;68.75;;
56297;SDS011;42208;6.376;-10.782;2023-03-04T22:51:54;185.55;;;79.68;;
56297;SDS011;42208;6.376;-10.782;2023-03-04T22:54:22;207.25;;;91.55;;
56297;SDS011;42208;6.376;-10.782;2023-03-04T22:56:51;282.67;;;115.75;;
56297;SDS011;42208;6.376;-10.782;2023-03-04T22:59:19;404.00;;;167.82;;
56297;SDS011;42208;6.376;-10.782;2023-03-04T23:01:48;456.70;;;204.05;;
56297;SDS011;42208;6.376;-10.782;2023-03-04T23:04:16;453.95;;;192.02;;
56297;SDS011;42208;6.376;-10.782;2023-03-04T23:06:48;276.75;;;110.80;;
56297;SDS011;42208;6.376;-10.782;2023-03-04T23:09:16;304.63;;;122.18;;
56297;SDS011;42208;6.376;-10.782;2023-03-04T23:11:44;376.38;;;145.27;;
56297;SDS011;42208;6.376;-10.782;2023-03-04T23:14:13;338.90;;;130.57;;
56297;SDS011;42208;6.376;-10.782;2023-03-04T23:16:41;235.07;;;89.68;;
56297;SDS011;42208;6.376;-10.782;2023-03-04T23:19:10;228.30;;;87.47;;
56297;SDS011;42208;6.376;-10.782;2023-03-04T23:21:41;248.05;;;90.18;;
56297;SDS011;42208;6.376;-10.782;2023-03-04T23:24:10;215.73;;;88.15;;
56297;SDS011;42208;6.376;-10.782;2023-03-04T23:26:40;189.77;;;75.13;;
56297;SDS011;42208;6.376;-10.782;2023-03-04T23:29:11;105.53;;;35.85;;
56297;SDS011;42208;6.376;-10.782;2023-03-04T23:31:41;104.43;;;39.60;;
56297;SDS011;42208;6.376;-10.782;2023-03-04T23:34:10;110.13;;;43.95;;
56297;SDS011;42208;6.376;-10.782;2023-03-04T23:36:38;176.00;;;67.57;;
56297;SDS011;42208;6.376;-10.782;2023-03-04T23:39:07;151.43;;;63.58;;
56297;SDS011;42208;6.376;-10.782;2023-03-04T23:41:36;214.38;;;86.05;;
56297;SDS011;42208;6.376;-10.782;2023-03-04T23:44:04;474.27;;;203.05;;
56297;SDS011;42208;6.376;-10.782;2023-03-04T23:46:33;329.45;;;119.32;;
56297;SDS011;42208;6.376;-10.782;2023-03-04T23:49:02;250.02;;;96.10;;
56297;SDS011;42208;6.376;-10.782;2023-03-04T23:51:31;195.13;;;72.93;;
56297;SDS011;42208;6.376;-10.782;2023-03-04T23:53:59;79.78;;;26.10;;
56297;SDS011;42208;6.376;-10.782;2023-03-04T23:56:29;94.72;;;28.95;;
56297;SDS011;42208;6.376;-10.782;2023-03-04T23:58:58;88.18;;;31.75;;
